Longswamp, Pennsylvania
Current Conditions -  °F | °C
As of 10:35 PM on Monday 20 Oct 2014 (Local Time) from KXLL Reporting Station
Overcast Overcast  
Wind Chill: 13°   Ceiling: 11000
Heat Index: 13°   Visibility: 10mi
Dew Point:   Wind: 9mph
Humidity: 58%   Direction: 210°SSW
Pressure: 29.96"   Gusts: NA
Location:  40.4939°N, 75.6842°W
Report Text: KXLL 210235Z AUTO 21008KT 10SM OVC110 13/05 A2996 RMK AO2
Loading
Personal Weather Stations






























Interactive Weather Map
Tropical Storm Tracking
New forecast layout! Learn more

10-Day Weather Forecast

Advertisements
Track Severe Weather on mobile